createdAt,value
2023-04-06T00:00:31.799Z,3.08
2023-04-06T00:03:05.457Z,3.07
2023-04-06T00:05:39.025Z,3.03
2023-04-06T00:08:12.753Z,3.00
2023-04-06T00:10:46.757Z,2.97
2023-04-06T00:13:20.701Z,2.95
2023-04-06T00:15:54.280Z,2.93
2023-04-06T00:18:27.875Z,2.93
2023-04-06T00:21:01.438Z,2.90
2023-04-06T00:23:34.925Z,2.87
2023-04-06T00:26:08.664Z,2.83
2023-04-06T00:28:42.236Z,2.81
2023-04-06T00:31:15.714Z,2.81
2023-04-06T00:33:50.655Z,2.81
2023-04-06T00:36:24.197Z,2.82
2023-04-06T00:38:57.774Z,2.80
2023-04-06T00:41:31.236Z,2.75
2023-04-06T00:44:04.857Z,2.71
2023-04-06T00:46:38.787Z,2.68
2023-04-06T00:49:12.485Z,2.63
2023-04-06T00:51:46.546Z,2.62
2023-04-06T00:54:20.916Z,2.60
2023-04-06T00:56:54.982Z,2.59
2023-04-06T00:59:29.261Z,2.56
2023-04-06T01:02:03.692Z,2.54
2023-04-06T01:04:42.255Z,2.50
2023-04-06T01:07:17.200Z,2.47
2023-04-06T01:09:52.212Z,2.45
2023-04-06T01:12:27.378Z,2.44
2023-04-06T01:15:00.942Z,2.43
2023-04-06T01:17:35.395Z,2.42
2023-04-06T01:20:12.065Z,2.41
2023-04-06T01:22:45.971Z,2.35
2023-04-06T01:25:19.845Z,2.32
2023-04-06T01:27:54.900Z,2.31
2023-04-06T01:30:30.052Z,2.29
2023-04-06T01:33:05.455Z,2.26
2023-04-06T01:35:40.811Z,2.23
2023-04-06T01:38:24.994Z,2.23
2023-04-06T01:40:58.552Z,2.18
2023-04-06T01:43:35.572Z,2.18
2023-04-06T01:46:10.746Z,2.18
2023-04-06T01:48:45.830Z,2.18
2023-04-06T01:51:23.629Z,2.13
2023-04-06T01:54:01.818Z,2.13
2023-04-06T01:56:42.799Z,2.13
2023-04-06T01:59:24.230Z,2.11
2023-04-06T02:01:58.296Z,2.09
2023-04-06T02:04:32.261Z,2.07
2023-04-06T02:07:07.495Z,2.07
2023-04-06T02:09:45.739Z,2.06
2023-04-06T02:12:20.706Z,2.04
2023-04-06T02:14:54.505Z,2.01
2023-04-06T02:17:29.624Z,2.00
2023-04-06T02:20:03.485Z,1.98
2023-04-06T02:22:36.784Z,1.97
2023-04-06T02:25:11.713Z,1.92
2023-04-06T02:27:45.257Z,1.90
2023-04-06T02:30:18.871Z,1.84
2023-04-06T02:32:52.643Z,1.84
2023-04-06T02:35:27.158Z,1.81
2023-04-06T02:38:00.938Z,1.82
2023-04-06T02:40:34.411Z,1.81
2023-04-06T02:43:09.844Z,1.81
2023-04-06T02:45:43.340Z,1.76
2023-04-06T02:48:17.738Z,1.72
2023-04-06T02:50:51.329Z,1.71
2023-04-06T02:53:24.818Z,1.70
2023-04-06T02:56:01.229Z,1.69
2023-04-06T02:58:36.309Z,1.68
2023-04-06T03:01:09.921Z,1.69
2023-04-06T03:03:44.040Z,1.70
2023-04-06T03:06:19.229Z,1.69
2023-04-06T03:08:54.263Z,1.68
2023-04-06T03:11:28.489Z,1.68
2023-04-06T03:14:02.434Z,1.69
2023-04-06T03:16:36.040Z,1.69
2023-04-06T03:19:10.391Z,1.70
2023-04-06T03:21:44.201Z,1.72
2023-04-06T03:24:18.359Z,1.74
2023-04-06T03:26:51.877Z,1.75
2023-04-06T03:29:26.600Z,1.68
2023-04-06T03:32:03.429Z,1.81
2023-04-06T03:34:44.433Z,1.83
2023-04-06T03:37:18.188Z,1.85
2023-04-06T03:39:56.335Z,1.88
2023-04-06T03:42:34.135Z,1.93
2023-04-06T03:45:11.831Z,1.98
2023-04-06T03:47:48.411Z,2.05
2023-04-06T03:50:23.635Z,2.08
2023-04-06T03:53:04.368Z,2.13
2023-04-06T03:55:37.927Z,2.16
2023-04-06T03:58:11.886Z,2.21
2023-04-06T04:03:30.539Z,2.42
2023-04-06T04:06:04.257Z,2.37
2023-04-06T04:08:39.295Z,2.43
2023-04-06T04:11:17.055Z,2.47
2023-04-06T04:13:52.189Z,2.51
2023-04-06T04:16:25.921Z,2.58
2023-04-06T04:19:00.096Z,2.64
2023-04-06T04:21:34.428Z,2.73
2023-04-06T04:24:10.385Z,2.80
2023-04-06T04:26:44.397Z,2.84
2023-04-06T04:29:19.862Z,2.90
2023-04-06T04:31:53.694Z,2.94
2023-04-06T04:34:28.252Z,3.00
2023-04-06T04:37:01.789Z,3.02
2023-04-06T04:39:36.902Z,3.09
2023-04-06T04:42:12.156Z,3.16
2023-04-06T04:44:47.191Z,3.22
2023-04-06T04:47:22.453Z,3.30
2023-04-06T04:49:56.168Z,3.36
2023-04-06T04:52:39.793Z,3.42
2023-04-06T04:55:14.892Z,3.47
2023-04-06T04:57:52.717Z,3.55
2023-04-06T05:00:30.100Z,3.62
2023-04-06T05:03:09.900Z,3.69
2023-04-06T05:08:26.852Z,3.98
2023-04-06T05:11:02.209Z,3.92
2023-04-06T05:13:38.527Z,4.02
2023-04-06T05:16:19.698Z,4.10
2023-04-06T05:18:54.138Z,4.17
2023-04-06T05:21:29.310Z,4.24
2023-04-06T05:24:10.802Z,4.34
2023-04-06T05:26:44.816Z,4.41
2023-04-06T05:29:22.368Z,4.48
2023-04-06T05:31:56.901Z,4.55
2023-04-06T05:34:30.919Z,4.63
2023-04-06T05:37:08.208Z,4.71
2023-04-06T05:39:43.209Z,4.81
2023-04-06T05:42:19.060Z,4.93
2023-04-06T05:44:54.141Z,5.00
2023-04-06T05:47:27.893Z,5.11
2023-04-06T05:50:03.031Z,5.20
2023-04-06T05:52:38.483Z,5.30
2023-04-06T05:55:13.774Z,5.40
2023-04-06T05:57:48.624Z,5.48
2023-04-06T06:00:24.253Z,5.59
2023-04-06T06:03:03.939Z,5.69
2023-04-06T06:05:38.046Z,5.82
2023-04-06T06:08:13.063Z,5.92
2023-04-06T06:10:46.976Z,6.02
2023-04-06T06:13:22.217Z,6.05
2023-04-06T06:15:57.079Z,6.16
2023-04-06T06:18:31.723Z,6.28
2023-04-06T06:21:06.321Z,6.41
2023-04-06T06:23:42.281Z,6.52
2023-04-06T06:26:16.756Z,6.65
2023-04-06T06:28:50.901Z,6.88
2023-04-06T06:31:25.789Z,7.36
2023-04-06T06:34:00.729Z,8.12
2023-04-06T06:36:36.599Z,9.22
2023-04-06T06:39:11.987Z,10.97
2023-04-06T06:41:45.864Z,12.84
2023-04-06T06:44:19.511Z,14.52
2023-04-06T06:46:53.168Z,15.83
2023-04-06T06:49:26.736Z,16.66
2023-04-06T06:52:00.538Z,17.29
2023-04-06T06:54:34.168Z,18.10
2023-04-06T06:57:07.634Z,18.81
2023-04-06T06:59:41.375Z,19.77
2023-04-06T07:02:15.705Z,20.57
2023-04-06T07:04:52.557Z,20.86
2023-04-06T07:07:26.440Z,20.96
2023-04-06T07:10:00.139Z,21.53
2023-04-06T07:12:35.964Z,22.28
2023-04-06T07:15:11.619Z,23.23
2023-04-06T07:17:46.659Z,24.17
2023-04-06T07:20:20.771Z,24.71
2023-04-06T07:22:54.998Z,25.06
2023-04-06T07:25:29.825Z,25.53
2023-04-06T07:28:03.633Z,26.04
2023-04-06T07:30:39.311Z,25.62
2023-04-06T07:33:14.447Z,25.54
2023-04-06T07:35:49.064Z,25.62
2023-04-06T07:38:22.764Z,25.59
2023-04-06T07:40:57.524Z,26.25
2023-04-06T07:43:31.756Z,26.18
2023-04-06T07:46:05.635Z,26.07
2023-04-06T07:48:39.617Z,26.05
2023-04-06T07:51:16.199Z,26.28
2023-04-06T07:53:50.440Z,26.95
2023-04-06T07:56:23.991Z,27.34
2023-04-06T07:58:58.254Z,27.89
2023-04-06T08:01:32.325Z,28.10
2023-04-06T08:04:12.550Z,28.96
2023-04-06T08:09:54.992Z,29.27
2023-04-06T08:12:28.089Z,29.55
2023-04-06T08:15:01.740Z,29.80
2023-04-06T08:17:36.329Z,29.85
2023-04-06T08:20:11.184Z,30.46
2023-04-06T08:22:44.268Z,30.66
2023-04-06T08:25:17.564Z,31.05
2023-04-06T08:27:50.994Z,31.44
2023-04-06T08:30:24.354Z,31.56
2023-04-06T08:32:57.703Z,31.77
2023-04-06T08:35:31.656Z,32.42
2023-04-06T08:38:04.799Z,32.82
2023-04-06T08:40:40.707Z,32.82
2023-04-06T08:43:16.797Z,33.33
2023-04-06T08:45:50.546Z,33.85
2023-04-06T08:48:26.016Z,34.39
2023-04-06T08:50:59.437Z,34.23
2023-04-06T08:53:32.652Z,33.93
2023-04-06T08:56:06.808Z,34.39
2023-04-06T08:58:42.155Z,34.20
2023-04-06T09:01:18.386Z,34.39
2023-04-06T09:03:53.635Z,34.62
2023-04-06T09:06:28.558Z,34.77
2023-04-06T09:09:01.895Z,34.79
2023-04-06T09:11:47.614Z,34.93
2023-04-06T09:14:23.156Z,34.68
2023-04-06T09:16:56.305Z,34.19
2023-04-06T09:19:29.437Z,34.88
2023-04-06T09:22:08.963Z,35.91
2023-04-06T09:24:46.640Z,35.33
2023-04-06T09:27:20.023Z,34.36
2023-04-06T09:29:53.262Z,33.80
2023-04-06T09:32:26.668Z,33.97
2023-04-06T09:35:10.944Z,34.57
2023-04-06T09:37:44.193Z,35.43
2023-04-06T09:40:20.361Z,35.15
2023-04-06T09:42:56.669Z,35.21
2023-04-06T09:45:31.972Z,35.35
2023-04-06T09:48:07.853Z,35.45
2023-04-06T09:50:42.283Z,35.78
2023-04-06T09:53:21.336Z,35.91
2023-04-06T09:55:58.330Z,35.96
2023-04-06T09:58:36.364Z,36.52
2023-04-06T10:01:12.849Z,37.16
2023-04-06T10:03:52.394Z,37.50
2023-04-06T10:06:28.601Z,37.06
2023-04-06T10:09:03.840Z,37.46
2023-04-06T10:11:40.163Z,37.36
2023-04-06T10:14:17.052Z,37.16
2023-04-06T10:16:54.095Z,36.61
2023-04-06T10:19:30.158Z,36.07
2023-04-06T10:22:05.401Z,35.99
2023-04-06T10:24:40.311Z,36.35
2023-04-06T10:27:13.638Z,36.22
2023-04-06T10:29:49.809Z,35.85
2023-04-06T10:32:27.320Z,36.53
2023-04-06T10:35:14.875Z,37.33
2023-04-06T10:37:54.036Z,37.64
2023-04-06T10:40:28.616Z,38.09
2023-04-06T10:43:13.647Z,37.96
2023-04-06T10:46:00.011Z,37.48
2023-04-06T10:48:42.790Z,37.16
2023-04-06T10:51:17.817Z,37.15
2023-04-06T10:53:55.508Z,36.86
2023-04-06T10:56:37.828Z,36.61
2023-04-06T10:59:26.310Z,36.89
2023-04-06T11:02:07.396Z,37.41
2023-04-06T11:04:49.757Z,37.72
2023-04-06T11:07:32.810Z,38.03
2023-04-06T11:10:16.868Z,37.98
2023-04-06T11:12:47.982Z,37.57
2023-04-06T11:15:25.613Z,37.27
2023-04-06T11:18:02.550Z,38.12
2023-04-06T11:20:38.171Z,38.96
2023-04-06T11:23:45.897Z,39.37
2023-04-06T11:26:39.673Z,39.09
2023-04-06T11:29:23.405Z,39.29
2023-04-06T11:32:04.634Z,38.19
2023-04-06T11:34:42.926Z,37.77
2023-04-06T11:37:18.534Z,37.68
2023-04-06T11:39:56.248Z,37.55
2023-04-06T11:42:32.340Z,37.82
2023-04-06T11:45:10.530Z,37.92
2023-04-06T11:47:45.308Z,37.99
2023-04-06T11:50:26.540Z,38.54
2023-04-06T11:53:05.195Z,38.47
2023-04-06T11:55:49.068Z,38.66
2023-04-06T11:58:24.946Z,38.32
2023-04-06T12:01:08.951Z,37.96
2023-04-06T12:03:44.004Z,38.07
2023-04-06T12:06:22.688Z,38.38
2023-04-06T12:09:04.551Z,38.57
2023-04-06T12:11:38.936Z,38.81
2023-04-06T12:14:12.229Z,39.20
2023-04-06T12:16:55.040Z,39.24
2023-04-06T12:19:31.152Z,38.81
2023-04-06T12:22:07.193Z,38.26
2023-04-06T12:27:16.666Z,37.00
2023-04-06T12:32:41.260Z,36.74
2023-04-06T12:35:16.711Z,35.32
2023-04-06T12:40:54.991Z,34.29
2023-04-06T12:43:28.327Z,33.91
2023-04-06T12:46:01.883Z,33.70
2023-04-06T12:48:35.307Z,34.16
2023-04-06T12:51:10.889Z,34.74
2023-04-06T12:53:44.445Z,34.74
2023-04-06T12:56:20.130Z,34.57
2023-04-06T12:58:54.913Z,35.21
2023-04-06T13:01:30.232Z,35.49
2023-04-06T13:04:03.846Z,35.88
2023-04-06T13:06:37.220Z,36.00
2023-04-06T13:09:10.975Z,36.04
2023-04-06T13:11:44.315Z,35.63
2023-04-06T13:14:17.875Z,34.91
2023-04-06T13:16:52.396Z,34.94
2023-04-06T13:19:27.954Z,34.96
2023-04-06T13:33:52.684Z,34.47
2023-04-06T13:36:25.890Z,34.50
2023-04-06T13:39:00.004Z,34.75
2023-04-06T13:41:33.278Z,34.95
2023-04-06T13:44:06.510Z,34.28
2023-04-06T13:46:39.925Z,33.73
2023-04-06T13:49:13.160Z,33.50
2023-04-06T13:51:46.326Z,32.65
2023-04-06T13:54:23.250Z,32.69
2023-04-06T13:56:56.398Z,33.07
2023-04-06T13:59:35.455Z,32.68
2023-04-06T14:02:13.335Z,32.61
2023-04-06T14:04:46.496Z,32.24
2023-04-06T14:07:19.811Z,31.96
2023-04-06T14:09:53.104Z,32.20
2023-04-06T14:12:26.514Z,31.91
2023-04-06T14:15:01.797Z,31.39
2023-04-06T14:17:36.343Z,31.21
2023-04-06T14:20:15.276Z,31.27
2023-04-06T14:22:50.501Z,31.14
2023-04-06T14:25:24.232Z,31.24
2023-04-06T14:27:57.945Z,31.22
2023-04-06T14:30:33.214Z,31.07
2023-04-06T14:33:06.805Z,30.58
2023-04-06T14:35:42.741Z,30.03
2023-04-06T14:38:16.463Z,29.83
2023-04-06T14:40:51.671Z,29.53
2023-04-06T14:46:28.921Z,29.45
2023-04-06T14:49:02.299Z,29.08
2023-04-06T14:51:38.611Z,28.82
2023-04-06T14:54:11.945Z,28.40
2023-04-06T14:56:45.066Z,28.06
2023-04-06T14:59:18.226Z,27.52
2023-04-06T15:01:52.555Z,26.91
2023-04-06T15:04:26.220Z,26.61
